sensor_id;sensor_type;location;lat;lon;timestamp;pressure;altitude;pressure_sealevel;temperature;humidity
11038;BME280;5572;49.540;11.932;2023-05-22T00:00:02;96005.91;;;16.71;100.00
11038;BME280;5572;49.540;11.932;2023-05-22T00:02:33;96011.94;;;16.09;100.00
11038;BME280;5572;49.540;11.932;2023-05-22T00:05:03;96009.88;;;15.73;100.00
11038;BME280;5572;49.540;11.932;2023-05-22T00:07:31;96015.72;;;15.84;100.00
11038;BME280;5572;49.540;11.932;2023-05-22T00:09:57;96020.66;;;16.35;100.00
11038;BME280;5572;49.540;11.932;2023-05-22T00:12:24;96030.50;;;15.42;100.00
11038;BME280;5572;49.540;11.932;2023-05-22T00:14:51;96017.63;;;15.31;100.00
11038;BME280;5572;49.540;11.932;2023-05-22T00:17:17;96000.91;;;15.41;100.00
11038;BME280;5572;49.540;11.932;2023-05-22T00:19:45;96001.88;;;15.07;100.00
11038;BME280;5572;49.540;11.932;2023-05-22T00:22:12;95997.16;;;14.75;100.00
11038;BME280;5572;49.540;11.932;2023-05-22T00:24:39;95998.84;;;15.09;100.00
11038;BME280;5572;49.540;11.932;2023-05-22T00:27:05;96001.19;;;15.19;100.00
11038;BME280;5572;49.540;11.932;2023-05-22T00:29:32;95995.19;;;15.05;100.00
11038;BME280;5572;49.540;11.932;2023-05-22T00:31:58;96001.59;;;14.80;100.00
11038;BME280;5572;49.540;11.932;2023-05-22T00:34:25;95999.84;;;15.04;100.00
11038;BME280;5572;49.540;11.932;2023-05-22T00:36:53;96001.38;;;15.14;100.00
11038;BME280;5572;49.540;11.932;2023-05-22T00:39:20;96001.66;;;15.21;100.00
11038;BME280;5572;49.540;11.932;2023-05-22T00:41:46;96015.06;;;15.87;100.00
11038;BME280;5572;49.540;11.932;2023-05-22T00:44:13;96037.56;;;15.43;100.00
11038;BME280;5572;49.540;11.932;2023-05-22T00:46:41;96038.03;;;15.45;100.00
11038;BME280;5572;49.540;11.932;2023-05-22T00:49:08;96032.69;;;15.69;100.00
11038;BME280;5572;49.540;11.932;2023-05-22T00:51:35;96035.34;;;15.77;100.00
11038;BME280;5572;49.540;11.932;2023-05-22T00:54:04;96054.00;;;15.87;100.00
11038;BME280;5572;49.540;11.932;2023-05-22T00:56:31;96037.28;;;15.77;100.00
11038;BME280;5572;49.540;11.932;2023-05-22T00:58:57;96049.09;;;15.81;100.00
11038;BME280;5572;49.540;11.932;2023-05-22T01:01:25;96060.16;;;15.96;100.00
11038;BME280;5572;49.540;11.932;2023-05-22T01:03:57;96058.47;;;15.71;100.00
11038;BME280;5572;49.540;11.932;2023-05-22T01:06:26;96072.09;;;15.92;100.00
11038;BME280;5572;49.540;11.932;2023-05-22T01:08:52;96079.53;;;15.62;100.00
11038;BME280;5572;49.540;11.932;2023-05-22T01:11:24;96084.56;;;15.72;100.00
11038;BME280;5572;49.540;11.932;2023-05-22T01:13:55;96085.94;;;15.46;100.00
11038;BME280;5572;49.540;11.932;2023-05-22T01:16:29;96080.91;;;15.48;100.00
11038;BME280;5572;49.540;11.932;2023-05-22T01:19:02;96077.28;;;15.44;100.00
11038;BME280;5572;49.540;11.932;2023-05-22T01:21:36;96081.06;;;15.23;100.00
11038;BME280;5572;49.540;11.932;2023-05-22T01:24:25;96065.69;;;15.27;100.00
11038;BME280;5572;49.540;11.932;2023-05-22T01:30:02;96046.78;;;15.01;100.00
11038;BME280;5572;49.540;11.932;2023-05-22T01:32:36;96040.28;;;15.14;100.00
11038;BME280;5572;49.540;11.932;2023-05-22T01:35:06;96045.41;;;15.16;100.00
11038;BME280;5572;49.540;11.932;2023-05-22T01:37:36;96054.09;;;14.80;100.00
11038;BME280;5572;49.540;11.932;2023-05-22T01:40:05;96071.09;;;14.32;100.00
11038;BME280;5572;49.540;11.932;2023-05-22T01:42:33;96051.06;;;14.36;100.00
11038;BME280;5572;49.540;11.932;2023-05-22T01:45:00;96047.31;;;14.20;100.00
11038;BME280;5572;49.540;11.932;2023-05-22T01:47:27;96039.78;;;14.17;100.00
11038;BME280;5572;49.540;11.932;2023-05-22T01:49:55;96035.63;;;14.03;100.00
11038;BME280;5572;49.540;11.932;2023-05-22T01:52:27;96018.53;;;14.19;100.00
11038;BME280;5572;49.540;11.932;2023-05-22T01:55:04;96019.81;;;14.13;100.00
11038;BME280;5572;49.540;11.932;2023-05-22T01:57:42;96019.50;;;13.98;100.00
11038;BME280;5572;49.540;11.932;2023-05-22T02:00:14;96007.88;;;13.80;100.00
11038;BME280;5572;49.540;11.932;2023-05-22T02:02:46;96013.81;;;13.74;100.00
11038;BME280;5572;49.540;11.932;2023-05-22T02:05:16;96009.00;;;13.63;100.00
11038;BME280;5572;49.540;11.932;2023-05-22T02:07:45;96006.81;;;13.31;100.00
11038;BME280;5572;49.540;11.932;2023-05-22T02:10:13;95997.53;;;13.49;100.00
11038;BME280;5572;49.540;11.932;2023-05-22T02:12:41;95995.31;;;13.25;100.00
11038;BME280;5572;49.540;11.932;2023-05-22T02:15:08;95989.53;;;13.61;100.00
11038;BME280;5572;49.540;11.932;2023-05-22T02:17:36;95983.47;;;13.38;100.00
11038;BME280;5572;49.540;11.932;2023-05-22T02:20:07;95984.41;;;13.59;100.00
11038;BME280;5572;49.540;11.932;2023-05-22T02:22:40;95982.38;;;13.31;100.00
11038;BME280;5572;49.540;11.932;2023-05-22T02:25:09;95981.41;;;13.27;100.00
11038;BME280;5572;49.540;11.932;2023-05-22T02:27:39;95966.56;;;13.16;100.00
11038;BME280;5572;49.540;11.932;2023-05-22T02:30:07;95945.34;;;13.18;100.00
11038;BME280;5572;49.540;11.932;2023-05-22T02:32:34;95961.13;;;12.82;100.00
11038;BME280;5572;49.540;11.932;2023-05-22T02:35:01;95956.66;;;13.03;100.00
11038;BME280;5572;49.540;11.932;2023-05-22T02:37:31;95962.38;;;12.76;100.00
11038;BME280;5572;49.540;11.932;2023-05-22T02:39:59;95953.13;;;12.77;100.00
11038;BME280;5572;49.540;11.932;2023-05-22T02:42:26;95964.94;;;12.81;100.00
11038;BME280;5572;49.540;11.932;2023-05-22T02:44:52;95959.38;;;13.03;100.00
11038;BME280;5572;49.540;11.932;2023-05-22T02:47:19;95961.47;;;12.89;100.00
11038;BME280;5572;49.540;11.932;2023-05-22T02:49:45;95976.72;;;12.68;100.00
11038;BME280;5572;49.540;11.932;2023-05-22T02:52:12;95964.00;;;12.86;100.00
11038;BME280;5572;49.540;11.932;2023-05-22T02:54:39;95963.84;;;12.90;100.00
11038;BME280;5572;49.540;11.932;2023-05-22T02:57:07;95967.81;;;12.93;100.00
11038;BME280;5572;49.540;11.932;2023-05-22T02:59:34;95957.16;;;13.13;100.00
11038;BME280;5572;49.540;11.932;2023-05-22T03:02:01;95956.53;;;13.16;100.00
11038;BME280;5572;49.540;11.932;2023-05-22T03:04:28;95956.84;;;13.23;100.00
11038;BME280;5572;49.540;11.932;2023-05-22T03:06:55;95955.25;;;13.22;100.00
11038;BME280;5572;49.540;11.932;2023-05-22T03:09:21;95961.94;;;13.08;100.00
11038;BME280;5572;49.540;11.932;2023-05-22T03:11:48;95973.44;;;12.96;100.00
11038;BME280;5572;49.540;11.932;2023-05-22T03:14:17;95974.72;;;12.99;100.00
11038;BME280;5572;49.540;11.932;2023-05-22T03:16:43;95974.69;;;12.82;100.00
11038;BME280;5572;49.540;11.932;2023-05-22T03:19:12;95972.91;;;12.78;100.00
11038;BME280;5572;49.540;11.932;2023-05-22T03:21:39;95965.88;;;12.68;100.00
11038;BME280;5572;49.540;11.932;2023-05-22T03:24:08;95966.34;;;12.79;100.00
11038;BME280;5572;49.540;11.932;2023-05-22T03:26:35;95967.81;;;12.93;100.00
11038;BME280;5572;49.540;11.932;2023-05-22T03:29:02;95983.47;;;12.88;100.00
11038;BME280;5572;49.540;11.932;2023-05-22T03:31:31;95985.03;;;12.80;100.00
11038;BME280;5572;49.540;11.932;2023-05-22T03:33:59;95992.50;;;12.66;100.00
11038;BME280;5572;49.540;11.932;2023-05-22T03:36:26;96005.47;;;12.39;100.00
11038;BME280;5572;49.540;11.932;2023-05-22T03:38:52;95992.28;;;12.46;100.00
11038;BME280;5572;49.540;11.932;2023-05-22T03:41:19;95989.47;;;12.59;100.00
11038;BME280;5572;49.540;11.932;2023-05-22T03:43:46;95995.22;;;12.66;100.00
11038;BME280;5572;49.540;11.932;2023-05-22T03:46:13;95990.59;;;12.67;100.00
11038;BME280;5572;49.540;11.932;2023-05-22T03:48:41;95985.53;;;12.82;100.00
11038;BME280;5572;49.540;11.932;2023-05-22T03:51:08;95996.84;;;12.76;100.00
11038;BME280;5572;49.540;11.932;2023-05-22T03:53:34;96002.88;;;12.73;100.00
11038;BME280;5572;49.540;11.932;2023-05-22T03:56:01;95997.38;;;12.94;100.00
11038;BME280;5572;49.540;11.932;2023-05-22T03:58:28;96002.25;;;12.84;100.00
11038;BME280;5572;49.540;11.932;2023-05-22T04:00:57;96004.97;;;12.84;100.00
11038;BME280;5572;49.540;11.932;2023-05-22T04:03:25;95998.91;;;12.87;100.00
11038;BME280;5572;49.540;11.932;2023-05-22T04:05:53;95986.06;;;13.18;100.00
11038;BME280;5572;49.540;11.932;2023-05-22T04:08:21;95992.44;;;13.22;100.00
11038;BME280;5572;49.540;11.932;2023-05-22T04:10:48;95988.75;;;13.35;100.00
11038;BME280;5572;49.540;11.932;2023-05-22T04:13:15;95992.59;;;13.51;100.00
11038;BME280;5572;49.540;11.932;2023-05-22T04:15:44;95986.97;;;13.56;100.00
11038;BME280;5572;49.540;11.932;2023-05-22T04:18:11;95979.28;;;13.74;100.00
11038;BME280;5572;49.540;11.932;2023-05-22T04:20:38;95986.00;;;13.69;100.00
11038;BME280;5572;49.540;11.932;2023-05-22T04:23:06;95990.34;;;13.44;100.00
11038;BME280;5572;49.540;11.932;2023-05-22T04:25:33;95978.84;;;13.56;100.00
11038;BME280;5572;49.540;11.932;2023-05-22T04:28:00;95966.53;;;13.67;100.00
11038;BME280;5572;49.540;11.932;2023-05-22T04:30:28;95964.00;;;14.07;100.00
11038;BME280;5572;49.540;11.932;2023-05-22T04:32:54;95955.44;;;14.63;100.00
11038;BME280;5572;49.540;11.932;2023-05-22T04:35:21;95954.00;;;14.37;100.00
11038;BME280;5572;49.540;11.932;2023-05-22T04:37:48;95959.88;;;14.67;100.00
11038;BME280;5572;49.540;11.932;2023-05-22T04:40:16;95968.56;;;15.10;100.00
11038;BME280;5572;49.540;11.932;2023-05-22T04:42:42;95951.66;;;15.46;100.00
11038;BME280;5572;49.540;11.932;2023-05-22T04:45:10;95931.16;;;15.60;100.00
11038;BME280;5572;49.540;11.932;2023-05-22T04:47:38;95944.59;;;16.21;100.00
11038;BME280;5572;49.540;11.932;2023-05-22T04:50:06;95921.41;;;17.81;100.00
11038;BME280;5572;49.540;11.932;2023-05-22T04:52:33;95915.38;;;18.18;100.00
11038;BME280;5572;49.540;11.932;2023-05-22T04:55:00;95897.47;;;18.20;100.00
11038;BME280;5572;49.540;11.932;2023-05-22T04:57:28;95901.16;;;19.08;100.00
11038;BME280;5572;49.540;11.932;2023-05-22T04:59:54;95946.50;;;18.41;100.00
11038;BME280;5572;49.540;11.932;2023-05-22T05:02:21;95942.41;;;18.50;100.00
11038;BME280;5572;49.540;11.932;2023-05-22T05:04:47;95906.59;;;19.24;100.00
11038;BME280;5572;49.540;11.932;2023-05-22T05:07:14;95884.81;;;20.32;100.00
11038;BME280;5572;49.540;11.932;2023-05-22T05:09:42;95902.19;;;19.57;100.00
11038;BME280;5572;49.540;11.932;2023-05-22T05:12:09;95909.72;;;19.41;100.00
11038;BME280;5572;49.540;11.932;2023-05-22T05:14:37;95962.28;;;20.45;100.00
11038;BME280;5572;49.540;11.932;2023-05-22T05:17:04;96025.31;;;19.28;100.00
11038;BME280;5572;49.540;11.932;2023-05-22T05:19:30;96004.50;;;20.37;100.00
11038;BME280;5572;49.540;11.932;2023-05-22T05:21:58;96023.47;;;21.35;100.00
11038;BME280;5572;49.540;11.932;2023-05-22T05:24:25;96095.03;;;19.61;100.00
11038;BME280;5572;49.540;11.932;2023-05-22T05:26:52;96066.69;;;21.12;100.00
11038;BME280;5572;49.540;11.932;2023-05-22T05:29:19;96078.03;;;20.88;100.00
11038;BME280;5572;49.540;11.932;2023-05-22T05:31:46;96086.97;;;20.81;100.00
11038;BME280;5572;49.540;11.932;2023-05-22T05:34:13;96107.72;;;21.01;100.00
11038;BME280;5572;49.540;11.932;2023-05-22T05:36:40;96117.78;;;20.90;100.00
11038;BME280;5572;49.540;11.932;2023-05-22T05:39:06;96069.69;;;22.69;100.00
11038;BME280;5572;49.540;11.932;2023-05-22T05:41:33;96098.44;;;21.80;100.00
11038;BME280;5572;49.540;11.932;2023-05-22T05:44:00;96114.84;;;21.25;100.00
11038;BME280;5572;49.540;11.932;2023-05-22T05:46:27;96082.09;;;22.53;100.00
11038;BME280;5572;49.540;11.932;2023-05-22T05:48:55;96082.88;;;22.20;100.00
11038;BME280;5572;49.540;11.932;2023-05-22T05:51:21;96127.28;;;21.19;100.00
11038;BME280;5572;49.540;11.932;2023-05-22T05:53:48;96144.38;;;21.31;100.00
11038;BME280;5572;49.540;11.932;2023-05-22T05:56:15;96144.09;;;22.10;100.00
11038;BME280;5572;49.540;11.932;2023-05-22T05:58:41;96139.50;;;22.47;100.00
11038;BME280;5572;49.540;11.932;2023-05-22T06:01:08;96110.91;;;22.29;100.00
11038;BME280;5572;49.540;11.932;2023-05-22T06:03:35;96165.91;;;21.70;100.00
11038;BME280;5572;49.540;11.932;2023-05-22T06:06:04;96199.25;;;21.47;100.00
11038;BME280;5572;49.540;11.932;2023-05-22T06:08:31;96216.44;;;20.99;100.00
11038;BME280;5572;49.540;11.932;2023-05-22T06:10:58;96162.25;;;22.41;100.00
11038;BME280;5572;49.540;11.932;2023-05-22T06:13:25;96141.34;;;23.42;100.00
11038;BME280;5572;49.540;11.932;2023-05-22T06:15:52;96165.59;;;22.57;100.00
11038;BME280;5572;49.540;11.932;2023-05-22T06:18:18;96191.28;;;22.09;100.00
11038;BME280;5572;49.540;11.932;2023-05-22T06:20:45;96141.44;;;23.12;100.00
11038;BME280;5572;49.540;11.932;2023-05-22T06:23:13;96130.06;;;22.48;100.00
11038;BME280;5572;49.540;11.932;2023-05-22T06:25:42;96143.41;;;23.08;100.00
11038;BME280;5572;49.540;11.932;2023-05-22T06:28:08;96187.03;;;22.15;100.00
11038;BME280;5572;49.540;11.932;2023-05-22T06:30:35;96116.28;;;23.64;100.00
11038;BME280;5572;49.540;11.932;2023-05-22T06:33:02;96064.53;;;24.08;100.00
11038;BME280;5572;49.540;11.932;2023-05-22T06:35:29;96138.53;;;22.65;100.00
11038;BME280;5572;49.540;11.932;2023-05-22T06:37:59;96148.59;;;23.60;100.00
11038;BME280;5572;49.540;11.932;2023-05-22T06:40:32;96155.03;;;22.95;100.00
11038;BME280;5572;49.540;11.932;2023-05-22T06:42:58;96119.59;;;22.60;100.00
11038;BME280;5572;49.540;11.932;2023-05-22T06:45:25;96148.91;;;23.08;100.00
11038;BME280;5572;49.540;11.932;2023-05-22T06:47:54;96160.78;;;22.79;100.00
11038;BME280;5572;49.540;11.932;2023-05-22T06:50:21;96234.81;;;22.00;100.00
11038;BME280;5572;49.540;11.932;2023-05-22T06:52:49;96243.81;;;21.74;100.00
11038;BME280;5572;49.540;11.932;2023-05-22T06:55:18;96242.91;;;22.15;100.00
11038;BME280;5572;49.540;11.932;2023-05-22T06:57:46;96260.25;;;22.42;100.00
11038;BME280;5572;49.540;11.932;2023-05-22T07:00:13;96257.00;;;22.62;100.00
11038;BME280;5572;49.540;11.932;2023-05-22T07:02:42;96244.44;;;22.94;100.00
11038;BME280;5572;49.540;11.932;2023-05-22T07:05:08;96264.56;;;21.91;100.00
11038;BME280;5572;49.540;11.932;2023-05-22T07:07:38;96262.47;;;22.58;100.00
11038;BME280;5572;49.540;11.932;2023-05-22T07:10:06;96248.53;;;22.48;100.00
11038;BME280;5572;49.540;11.932;2023-05-22T07:12:33;96243.00;;;22.22;100.00
11038;BME280;5572;49.540;11.932;2023-05-22T07:15:01;96286.75;;;22.27;100.00
11038;BME280;5572;49.540;11.932;2023-05-22T07:17:28;96240.91;;;23.26;100.00
11038;BME280;5572;49.540;11.932;2023-05-22T07:19:56;96196.72;;;24.06;100.00
11038;BME280;5572;49.540;11.932;2023-05-22T07:22:24;96207.81;;;24.16;100.00
11038;BME280;5572;49.540;11.932;2023-05-22T07:24:52;96166.50;;;24.37;100.00
11038;BME280;5572;49.540;11.932;2023-05-22T07:27:19;96186.56;;;23.30;100.00
11038;BME280;5572;49.540;11.932;2023-05-22T07:29:48;96144.25;;;24.80;100.00
11038;BME280;5572;49.540;11.932;2023-05-22T07:32:16;96153.69;;;24.05;100.00
11038;BME280;5572;49.540;11.932;2023-05-22T07:34:43;96184.34;;;23.46;100.00
11038;BME280;5572;49.540;11.932;2023-05-22T07:37:11;96177.22;;;23.85;100.00
11038;BME280;5572;49.540;11.932;2023-05-22T07:39:38;96142.19;;;24.63;100.00
11038;BME280;5572;49.540;11.932;2023-05-22T07:42:05;96201.03;;;24.00;100.00
11038;BME280;5572;49.540;11.932;2023-05-22T07:44:32;96166.91;;;23.78;100.00
11038;BME280;5572;49.540;11.932;2023-05-22T07:46:59;96095.75;;;25.18;100.00
11038;BME280;5572;49.540;11.932;2023-05-22T07:49:27;96131.75;;;24.33;100.00
11038;BME280;5572;49.540;11.932;2023-05-22T07:51:53;96116.59;;;24.80;100.00
11038;BME280;5572;49.540;11.932;2023-05-22T07:54:20;96114.31;;;24.18;100.00
11038;BME280;5572;49.540;11.932;2023-05-22T07:56:47;96105.63;;;25.15;100.00
11038;BME280;5572;49.540;11.932;2023-05-22T07:59:14;96109.28;;;24.37;100.00
11038;BME280;5572;49.540;11.932;2023-05-22T08:01:43;96045.94;;;25.42;100.00
11038;BME280;5572;49.540;11.932;2023-05-22T08:04:10;96068.34;;;24.60;100.00
11038;BME280;5572;49.540;11.932;2023-05-22T08:06:38;96022.25;;;25.20;100.00
11038;BME280;5572;49.540;11.932;2023-05-22T08:09:05;96113.44;;;24.82;100.00
11038;BME280;5572;49.540;11.932;2023-05-22T08:11:32;96052.25;;;25.53;100.00
11038;BME280;5572;49.540;11.932;2023-05-22T08:14:00;96032.09;;;25.04;100.00
11038;BME280;5572;49.540;11.932;2023-05-22T08:16:27;95975.56;;;25.43;100.00
11038;BME280;5572;49.540;11.932;2023-05-22T08:18:55;95986.22;;;25.10;100.00
11038;BME280;5572;49.540;11.932;2023-05-22T08:21:21;95903.25;;;24.96;100.00
11038;BME280;5572;49.540;11.932;2023-05-22T08:23:50;95960.59;;;25.13;100.00
11038;BME280;5572;49.540;11.932;2023-05-22T08:26:17;95926.16;;;24.82;100.00
11038;BME280;5572;49.540;11.932;2023-05-22T08:28:44;95979.50;;;25.42;100.00
11038;BME280;5572;49.540;11.932;2023-05-22T08:31:13;95950.63;;;24.52;100.00
11038;BME280;5572;49.540;11.932;2023-05-22T08:33:42;95960.94;;;23.63;100.00
11038;BME280;5572;49.540;11.932;2023-05-22T08:36:08;95924.84;;;25.77;100.00
11038;BME280;5572;49.540;11.932;2023-05-22T08:38:37;95860.53;;;25.28;100.00
11038;BME280;5572;49.540;11.932;2023-05-22T08:41:06;95871.97;;;26.84;100.00
11038;BME280;5572;49.540;11.932;2023-05-22T08:43:33;95824.38;;;25.66;100.00
11038;BME280;5572;49.540;11.932;2023-05-22T08:46:03;95869.28;;;24.57;100.00
11038;BME280;5572;49.540;11.932;2023-05-22T08:48:31;95897.97;;;25.78;100.00
11038;BME280;5572;49.540;11.932;2023-05-22T08:51:04;95771.13;;;26.60;100.00
11038;BME280;5572;49.540;11.932;2023-05-22T08:53:33;95788.25;;;25.98;100.00
11038;BME280;5572;49.540;11.932;2023-05-22T08:56:01;95755.31;;;26.10;100.00
11038;BME280;5572;49.540;11.932;2023-05-22T08:58:31;95803.59;;;25.34;100.00
11038;BME280;5572;49.540;11.932;2023-05-22T09:00:58;95761.91;;;24.52;100.00
11038;BME280;5572;49.540;11.932;2023-05-22T09:03:25;95740.53;;;25.66;100.00
11038;BME280;5572;49.540;11.932;2023-05-22T09:05:52;95658.91;;;27.05;100.00
11038;BME280;5572;49.540;11.932;2023-05-22T09:08:19;95691.72;;;26.40;100.00
11038;BME280;5572;49.540;11.932;2023-05-22T09:10:46;95704.47;;;26.71;100.00
11038;BME280;5572;49.540;11.932;2023-05-22T09:13:23;95663.69;;;26.27;100.00
11038;BME280;5572;49.540;11.932;2023-05-22T09:15:57;95718.00;;;26.99;100.00
11038;BME280;5572;49.540;11.932;2023-05-22T09:18:26;95697.19;;;26.84;100.00
11038;BME280;5572;49.540;11.932;2023-05-22T09:20:52;95730.56;;;26.33;100.00
11038;BME280;5572;49.540;11.932;2023-05-22T09:23:29;95664.28;;;27.15;100.00
11038;BME280;5572;49.540;11.932;2023-05-22T09:25:59;95732.38;;;26.53;100.00
11038;BME280;5572;49.540;11.932;2023-05-22T09:28:31;95631.53;;;26.74;100.00
11038;BME280;5572;49.540;11.932;2023-05-22T09:31:00;95549.09;;;27.04;100.00
11038;BME280;5572;49.540;11.932;2023-05-22T09:33:28;95666.19;;;26.55;100.00
11038;BME280;5572;49.540;11.932;2023-05-22T09:35:55;95701.22;;;26.35;100.00
11038;BME280;5572;49.540;11.932;2023-05-22T09:38:26;95611.13;;;27.73;100.00
11038;BME280;5572;49.540;11.932;2023-05-22T09:40:53;95644.94;;;26.79;100.00
11038;BME280;5572;49.540;11.932;2023-05-22T09:43:21;95693.72;;;27.09;100.00
11038;BME280;5572;49.540;11.932;2023-05-22T09:45:48;95565.09;;;27.72;100.00
11038;BME280;5572;49.540;11.932;2023-05-22T09:48:16;95640.84;;;26.16;100.00
11038;BME280;5572;49.540;11.932;2023-05-22T09:50:46;95805.72;;;26.45;100.00
11038;BME280;5572;49.540;11.932;2023-05-22T09:53:15;95534.78;;;27.05;100.00
11038;BME280;5572;49.540;11.932;2023-05-22T09:55:43;95669.94;;;26.75;100.00
11038;BME280;5572;49.540;11.932;2023-05-22T09:58:12;95636.22;;;25.52;100.00
11038;BME280;5572;49.540;11.932;2023-05-22T10:00:42;95709.78;;;27.25;100.00
11038;BME280;5572;49.540;11.932;2023-05-22T10:03:21;95633.00;;;27.41;100.00
11038;BME280;5572;49.540;11.932;2023-05-22T10:05:50;95623.28;;;27.30;100.00
11038;BME280;5572;49.540;11.932;2023-05-22T10:08:21;95505.16;;;27.94;100.00
11038;BME280;5572;49.540;11.932;2023-05-22T10:10:50;95418.09;;;28.55;100.00
11038;BME280;5572;49.540;11.932;2023-05-22T10:13:17;95515.81;;;26.11;100.00
11038;BME280;5572;49.540;11.932;2023-05-22T10:15:46;95534.63;;;28.30;100.00
11038;BME280;5572;49.540;11.932;2023-05-22T10:18:13;95497.00;;;28.45;100.00
11038;BME280;5572;49.540;11.932;2023-05-22T10:20:42;95376.53;;;27.93;100.00
11038;BME280;5572;49.540;11.932;2023-05-22T10:23:11;95373.50;;;26.54;100.00
11038;BME280;5572;49.540;11.932;2023-05-22T10:25:37;95314.47;;;27.00;100.00
11038;BME280;5572;49.540;11.932;2023-05-22T10:28:04;95444.63;;;26.91;100.00
11038;BME280;5572;49.540;11.932;2023-05-22T10:30:35;95431.81;;;27.46;100.00
11038;BME280;5572;49.540;11.932;2023-05-22T10:33:06;95175.09;;;28.01;100.00
11038;BME280;5572;49.540;11.932;2023-05-22T10:35:40;95423.00;;;28.12;100.00
11038;BME280;5572;49.540;11.932;2023-05-22T10:38:35;95486.31;;;27.59;100.00
11038;BME280;5572;49.540;11.932;2023-05-22T10:41:06;95296.75;;;27.55;100.00
11038;BME280;5572;49.540;11.932;2023-05-22T10:43:37;95246.66;;;27.97;100.00
11038;BME280;5572;49.540;11.932;2023-05-22T10:46:05;95304.72;;;26.92;100.00
11038;BME280;5572;49.540;11.932;2023-05-22T10:48:36;95204.25;;;27.78;100.00
11038;BME280;5572;49.540;11.932;2023-05-22T10:51:04;95244.16;;;28.03;100.00
11038;BME280;5572;49.540;11.932;2023-05-22T10:53:33;95168.94;;;28.26;100.00
11038;BME280;5572;49.540;11.932;2023-05-22T10:56:09;95449.94;;;28.70;100.00
11038;BME280;5572;49.540;11.932;2023-05-22T10:58:38;95012.69;;;27.74;100.00
11038;BME280;5572;49.540;11.932;2023-05-22T11:01:13;95045.88;;;28.09;100.00
11038;BME280;5572;49.540;11.932;2023-05-22T11:03:56;95205.38;;;27.61;100.00
11038;BME280;5572;49.540;11.932;2023-05-22T11:06:34;94958.59;;;28.88;100.00
11038;BME280;5572;49.540;11.932;2023-05-22T11:09:27;94915.41;;;29.09;100.00
11038;BME280;5572;49.540;11.932;2023-05-22T11:12:13;95142.97;;;28.16;100.00
11038;BME280;5572;49.540;11.932;2023-05-22T11:14:41;95456.81;;;26.70;100.00
11038;BME280;5572;49.540;11.932;2023-05-22T11:17:11;95469.44;;;26.48;100.00
11038;BME280;5572;49.540;11.932;2023-05-22T11:19:39;95781.41;;;25.44;100.00
11038;BME280;5572;49.540;11.932;2023-05-22T11:22:06;95707.66;;;26.69;100.00
11038;BME280;5572;49.540;11.932;2023-05-22T11:24:36;95231.94;;;26.65;100.00
11038;BME280;5572;49.540;11.932;2023-05-22T11:27:05;95342.91;;;25.79;100.00
11038;BME280;5572;49.540;11.932;2023-05-22T11:29:32;95471.25;;;27.14;100.00
11038;BME280;5572;49.540;11.932;2023-05-22T11:32:00;95201.94;;;28.56;100.00
11038;BME280;5572;49.540;11.932;2023-05-22T11:34:27;94844.56;;;29.56;100.00
11038;BME280;5572;49.540;11.932;2023-05-22T11:36:56;94938.22;;;27.97;100.00
11038;BME280;5572;49.540;11.932;2023-05-22T11:39:23;95044.16;;;27.84;100.00
11038;BME280;5572;49.540;11.932;2023-05-22T11:41:51;95343.09;;;26.74;100.00
11038;BME280;5572;49.540;11.932;2023-05-22T11:44:18;95465.94;;;26.71;100.00
11038;BME280;5572;49.540;11.932;2023-05-22T11:46:45;95058.00;;;28.15;100.00
11038;BME280;5572;49.540;11.932;2023-05-22T11:49:11;95102.16;;;27.82;100.00
11038;BME280;5572;49.540;11.932;2023-05-22T11:51:38;95188.72;;;27.25;100.00
11038;BME280;5572;49.540;11.932;2023-05-22T11:54:05;95159.59;;;26.56;100.00
11038;BME280;5572;49.540;11.932;2023-05-22T11:56:32;94875.81;;;29.26;100.00
11038;BME280;5572;49.540;11.932;2023-05-22T11:59:00;95121.78;;;28.95;100.00
11038;BME280;5572;49.540;11.932;2023-05-22T12:01:26;95116.41;;;27.99;100.00
11038;BME280;5572;49.540;11.932;2023-05-22T12:03:53;95145.75;;;26.95;100.00
11038;BME280;5572;49.540;11.932;2023-05-22T12:06:20;95183.56;;;26.66;100.00
11038;BME280;5572;49.540;11.932;2023-05-22T12:08:46;95059.66;;;27.17;100.00
11038;BME280;5572;49.540;11.932;2023-05-22T12:11:13;94877.97;;;28.35;100.00
11038;BME280;5572;49.540;11.932;2023-05-22T12:13:39;94901.25;;;28.66;100.00
11038;BME280;5572;49.540;11.932;2023-05-22T12:16:18;94760.91;;;28.92;100.00
11038;BME280;5572;49.540;11.932;2023-05-22T12:18:46;94828.16;;;28.28;100.00
11038;BME280;5572;49.540;11.932;2023-05-22T12:21:12;94984.56;;;27.40;100.00
11038;BME280;5572;49.540;11.932;2023-05-22T12:23:47;94969.13;;;27.99;100.00
11038;BME280;5572;49.540;11.932;2023-05-22T12:26:13;94991.66;;;27.41;100.00
11038;BME280;5572;49.540;11.932;2023-05-22T12:28:40;94936.03;;;27.77;100.00
11038;BME280;5572;49.540;11.932;2023-05-22T12:31:06;94665.44;;;28.70;100.00
11038;BME280;5572;49.540;11.932;2023-05-22T12:33:34;94763.84;;;28.51;100.00
11038;BME280;5572;49.540;11.932;2023-05-22T12:36:06;95268.94;;;27.39;100.00
11038;BME280;5572;49.540;11.932;2023-05-22T12:38:33;94953.63;;;28.14;100.00
11038;BME280;5572;49.540;11.932;2023-05-22T12:40:59;94593.13;;;28.70;100.00
11038;BME280;5572;49.540;11.932;2023-05-22T12:43:26;94641.00;;;28.65;100.00
11038;BME280;5572;49.540;11.932;2023-05-22T12:45:52;94511.66;;;29.43;100.00
11038;BME280;5572;49.540;11.932;2023-05-22T12:48:19;94612.19;;;29.75;100.00
11038;BME280;5572;49.540;11.932;2023-05-22T12:50:47;94850.25;;;27.79;100.00
11038;BME280;5572;49.540;11.932;2023-05-22T12:53:14;95000.25;;;27.79;100.00
11038;BME280;5572;49.540;11.932;2023-05-22T12:55:41;95076.19;;;27.05;100.00
11038;BME280;5572;49.540;11.932;2023-05-22T12:58:08;95357.88;;;26.41;100.00